Time;durP1;ratioP1;P1;durP2;ratioP2;P2;SDS_P1;SDS_P2;PMS_P1;PMS_P2;Temp;Humidity;BMP_temperature;BMP_pressure;BME280_temperature;BME280_humidity;BME280_pressure;Samples;Min_cycle;Max_cycle;Signal;HPM_P1;HPM_P2
2021/05/05 00:02:11;;;;;;;1.77;1.67;;;;;;;;;;5007778;28;20219;-62
2021/05/05 00:04:37;;;;;;;1.73;1.13;;;;;;;;;;5006257;28;20267;-62
2021/05/05 00:07:03;;;;;;;1.33;1.30;;;;;;;;;;5001977;28;20692;-63
2021/05/05 00:09:29;;;;;;;1.23;1.10;;;;;;;;;;5000410;28;20193;-63
2021/05/05 00:11:55;;;;;;;1.40;1.30;;;;;;;;;;5007492;28;20255;-63
2021/05/05 00:14:22;;;;;;;1.83;1.30;;;;;;;;;;5005666;28;20627;-63
2021/05/05 00:16:48;;;;;;;1.93;1.40;;;;;;;;;;5002488;28;20197;-63
2021/05/05 00:19:14;;;;;;;4.50;1.40;;;;;;;;;;5002187;28;20196;-62
2021/05/05 00:21:40;;;;;;;1.13;1.03;;;;;;;;;;4993792;28;20217;-63
2021/05/05 00:24:07;;;;;;;1.93;1.07;;;;;;;;;;5003056;28;20648;-63
2021/05/05 00:26:33;;;;;;;1.57;1.10;;;;;;;;;;4999614;28;20217;-63
2021/05/05 00:28:59;;;;;;;1.30;1.20;;;;;;;;;;5007814;28;20640;-62
2021/05/05 00:31:25;;;;;;;3.07;1.60;;;;;;;;;;5008757;28;20703;-63
2021/05/05 00:33:51;;;;;;;0.90;0.90;;;;;;;;;;5004074;28;20219;-63
2021/05/05 00:36:17;;;;;;;1.40;1.30;;;;;;;;;;4998538;28;20187;-63
2021/05/05 00:38:45;;;;;;;1.53;1.30;;;;;;;;;;5002941;28;20223;-62
2021/05/05 00:41:11;;;;;;;2.60;1.20;;;;;;;;;;5001246;28;20209;-62
2021/05/05 00:43:38;;;;;;;2.63;1.40;;;;;;;;;;5007149;28;20223;-62
2021/05/05 00:46:04;;;;;;;1.53;1.10;;;;;;;;;;4998975;28;20197;-62
2021/05/05 00:48:30;;;;;;;3.40;1.30;;;;;;;;;;5004471;28;20200;-62
2021/05/05 00:50:57;;;;;;;3.73;1.43;;;;;;;;;;5005020;28;20701;-62
2021/05/05 00:53:23;;;;;;;1.53;1.40;;;;;;;;;;5000067;28;20191;-63
2021/05/05 00:55:49;;;;;;;1.60;1.50;;;;;;;;;;5000692;28;20197;-62
2021/05/05 00:58:15;;;;;;;2.00;1.30;;;;;;;;;;5001068;28;20268;-61
2021/05/05 01:00:42;;;;;;;1.60;1.20;;;;;;;;;;5004338;28;20211;-62
2021/05/05 01:03:08;;;;;;;2.20;1.70;;;;;;;;;;5003064;28;20678;-63
2021/05/05 01:05:34;;;;;;;2.30;1.60;;;;;;;;;;5007304;28;20277;-62
2021/05/05 01:08:00;;;;;;;2.33;1.40;;;;;;;;;;4999579;28;20621;-61
2021/05/05 01:10:26;;;;;;;3.77;1.50;;;;;;;;;;5000661;28;20212;-62
2021/05/05 01:12:52;;;;;;;3.27;1.40;;;;;;;;;;5004518;28;20193;-62
2021/05/05 01:15:18;;;;;;;3.83;1.60;;;;;;;;;;5007556;28;20219;-62
2021/05/05 01:17:44;;;;;;;2.63;1.43;;;;;;;;;;5008476;28;20270;-62
2021/05/05 01:20:11;;;;;;;2.70;1.73;;;;;;;;;;5020713;28;20297;-62
2021/05/05 01:22:37;;;;;;;2.47;1.60;;;;;;;;;;5015075;28;20705;-61
2021/05/05 01:25:04;;;;;;;3.23;1.70;;;;;;;;;;5004370;28;20211;-61
2021/05/05 01:27:30;;;;;;;4.33;1.70;;;;;;;;;;5000280;28;20195;-61
2021/05/05 01:29:56;;;;;;;1.87;1.27;;;;;;;;;;5002620;28;20197;-62
2021/05/05 01:32:22;;;;;;;1.27;1.20;;;;;;;;;;5002766;28;20213;-62
2021/05/05 01:34:48;;;;;;;3.23;1.50;;;;;;;;;;5003959;28;20200;-62
2021/05/05 01:37:15;;;;;;;1.57;1.40;;;;;;;;;;5003040;28;20279;-63
2021/05/05 01:39:41;;;;;;;1.40;1.30;;;;;;;;;;5004558;28;20184;-62
2021/05/05 01:42:08;;;;;;;2.43;1.30;;;;;;;;;;5005025;28;20223;-63
2021/05/05 01:44:35;;;;;;;1.87;1.70;;;;;;;;;;5005669;28;20272;-63
2021/05/05 01:47:01;;;;;;;2.73;1.60;;;;;;;;;;5012913;28;20185;-62
2021/05/05 01:49:27;;;;;;;2.03;1.53;;;;;;;;;;5019989;28;20214;-61
2021/05/05 01:51:54;;;;;;;5.43;1.57;;;;;;;;;;5017312;28;20210;-62
2021/05/05 01:54:21;;;;;;;3.43;1.70;;;;;;;;;;5006417;28;20193;-62
2021/05/05 01:56:47;;;;;;;3.00;1.50;;;;;;;;;;5002274;28;20189;-62
2021/05/05 01:59:13;;;;;;;1.97;1.60;;;;;;;;;;5002049;28;20189;-62
2021/05/05 02:01:39;;;;;;;2.07;1.40;;;;;;;;;;5002578;28;20291;-61
2021/05/05 02:04:05;;;;;;;2.30;1.70;;;;;;;;;;5001993;28;20307;-61
2021/05/05 02:06:31;;;;;;;3.07;1.57;;;;;;;;;;5006441;28;20195;-62
2021/05/05 02:08:58;;;;;;;4.67;1.50;;;;;;;;;;5003504;28;20188;-64
2021/05/05 02:11:24;;;;;;;2.53;1.63;;;;;;;;;;5007432;28;20225;-63
2021/05/05 02:13:50;;;;;;;3.00;1.70;;;;;;;;;;5004145;28;20290;-63
2021/05/05 02:16:17;;;;;;;2.00;1.70;;;;;;;;;;5004083;28;20251;-63
2021/05/05 02:18:43;;;;;;;1.53;1.40;;;;;;;;;;5001250;28;20200;-63
2021/05/05 02:21:09;;;;;;;3.93;1.50;;;;;;;;;;4998032;28;20267;-63
2021/05/05 02:23:35;;;;;;;1.50;1.40;;;;;;;;;;5002668;28;20185;-63
2021/05/05 02:26:01;;;;;;;2.30;1.40;;;;;;;;;;5006046;28;20312;-63
2021/05/05 02:28:27;;;;;;;2.13;1.60;;;;;;;;;;5004332;28;20181;-62
2021/05/05 02:30:54;;;;;;;1.60;1.50;;;;;;;;;;5001361;28;20213;-62
2021/05/05 02:33:20;;;;;;;4.53;1.70;;;;;;;;;;5011904;28;20197;-62
2021/05/05 02:35:46;;;;;;;1.63;1.53;;;;;;;;;;4998065;28;20188;-62
2021/05/05 02:38:12;;;;;;;3.13;1.30;;;;;;;;;;4999359;28;20182;-62
2021/05/05 02:40:38;;;;;;;4.60;1.40;;;;;;;;;;5000504;28;20228;-62
2021/05/05 02:43:04;;;;;;;1.60;1.50;;;;;;;;;;5008102;28;20615;-61
2021/05/05 02:45:30;;;;;;;2.80;1.67;;;;;;;;;;4999111;28;20236;-61
2021/05/05 02:47:56;;;;;;;1.57;1.47;;;;;;;;;;5003095;28;20744;-63
2021/05/05 02:50:22;;;;;;;1.73;1.57;;;;;;;;;;4999330;28;20248;-62
2021/05/05 02:52:48;;;;;;;1.77;1.60;;;;;;;;;;5001329;28;20208;-61
2021/05/05 02:55:15;;;;;;;1.70;1.60;;;;;;;;;;4997609;28;20202;-63
2021/05/05 02:57:41;;;;;;;1.83;1.70;;;;;;;;;;5012426;28;20292;-62
2021/05/05 03:00:08;;;;;;;3.33;1.80;;;;;;;;;;4999878;28;20247;-64
2021/05/05 03:02:34;;;;;;;2.40;1.73;;;;;;;;;;4996288;28;20225;-64
2021/05/05 03:05:00;;;;;;;3.20;1.57;;;;;;;;;;5000491;28;20192;-62
2021/05/05 03:07:26;;;;;;;2.20;1.40;;;;;;;;;;5001943;28;20220;-62
2021/05/05 03:09:53;;;;;;;2.70;1.50;;;;;;;;;;5000481;28;20618;-63
2021/05/05 03:12:19;;;;;;;3.53;1.77;;;;;;;;;;5001570;28;20242;-62
2021/05/05 03:14:45;;;;;;;3.53;1.50;;;;;;;;;;4999219;28;20184;-62
2021/05/05 03:17:11;;;;;;;2.97;1.90;;;;;;;;;;5004482;28;20194;-62
2021/05/05 03:19:37;;;;;;;3.40;1.40;;;;;;;;;;5002803;28;20192;-64
2021/05/05 03:22:03;;;;;;;4.90;2.20;;;;;;;;;;5000535;28;20328;-63
2021/05/05 03:24:29;;;;;;;2.90;2.00;;;;;;;;;;5011691;28;20181;-62
2021/05/05 03:26:55;;;;;;;3.30;2.07;;;;;;;;;;5001927;28;20278;-63
2021/05/05 03:29:21;;;;;;;1.80;1.70;;;;;;;;;;5002838;28;20267;-63
2021/05/05 03:31:47;;;;;;;4.13;2.10;;;;;;;;;;5002019;28;20215;-63
2021/05/05 03:34:15;;;;;;;3.97;2.10;;;;;;;;;;5005978;28;20236;-63
2021/05/05 03:36:41;;;;;;;3.30;2.00;;;;;;;;;;5004222;28;20219;-63
2021/05/05 03:39:07;;;;;;;3.03;1.77;;;;;;;;;;5002331;28;20227;-62
2021/05/05 03:41:33;;;;;;;4.50;1.87;;;;;;;;;;5008924;28;20226;-62
2021/05/05 03:43:59;;;;;;;5.00;2.00;;;;;;;;;;5011136;28;20277;-62
2021/05/05 03:46:26;;;;;;;5.57;1.90;;;;;;;;;;4993778;28;20271;-63
2021/05/05 03:48:52;;;;;;;3.47;1.97;;;;;;;;;;5005821;28;20252;-62
2021/05/05 03:51:18;;;;;;;3.67;1.90;;;;;;;;;;5003914;28;20216;-64
2021/05/05 03:53:44;;;;;;;4.43;2.00;;;;;;;;;;5002535;28;20285;-63
2021/05/05 03:56:10;;;;;;;4.30;1.80;;;;;;;;;;5000821;28;20625;-63
2021/05/05 03:58:37;;;;;;;6.20;2.20;;;;;;;;;;5003952;28;20659;-63
2021/05/05 04:01:03;;;;;;;3.47;2.43;;;;;;;;;;5005853;28;20228;-63
2021/05/05 04:03:29;;;;;;;2.93;2.17;;;;;;;;;;5003454;28;20190;-62
2021/05/05 04:05:55;;;;;;;4.57;1.90;;;;;;;;;;5002108;28;20247;-63
2021/05/05 04:08:21;;;;;;;5.20;2.20;;;;;;;;;;5001710;28;20196;-63
2021/05/05 04:10:47;;;;;;;2.00;1.90;;;;;;;;;;5008613;28;20282;-63
2021/05/05 04:13:13;;;;;;;6.67;2.37;;;;;;;;;;5005274;28;20779;-63
2021/05/05 04:15:39;;;;;;;2.67;2.20;;;;;;;;;;5002844;28;20232;-62
2021/05/05 04:18:05;;;;;;;3.47;2.07;;;;;;;;;;4999102;28;20263;-63
2021/05/05 04:20:32;;;;;;;5.10;2.00;;;;;;;;;;5003586;28;20894;-63
2021/05/05 04:22:58;;;;;;;3.77;2.00;;;;;;;;;;5003216;28;20370;-63
2021/05/05 04:25:24;;;;;;;3.57;1.83;;;;;;;;;;5010721;28;20293;-62
2021/05/05 04:27:50;;;;;;;5.33;1.80;;;;;;;;;;4994644;28;20821;-65
2021/05/05 04:30:19;;;;;;;4.40;2.10;;;;;;;;;;4996280;28;20214;-64
2021/05/05 04:32:46;;;;;;;4.27;2.00;;;;;;;;;;5001482;28;20758;-64
2021/05/05 04:35:13;;;;;;;2.17;1.97;;;;;;;;;;5002352;28;20188;-64
2021/05/05 04:37:39;;;;;;;5.13;2.30;;;;;;;;;;5004731;28;20202;-64
2021/05/05 04:40:05;;;;;;;3.90;2.20;;;;;;;;;;4997458;28;20192;-64
2021/05/05 04:42:32;;;;;;;4.43;2.23;;;;;;;;;;4996596;28;20216;-64
2021/05/05 04:45:00;;;;;;;3.00;2.10;;;;;;;;;;5008138;28;20220;-65
2021/05/05 04:47:27;;;;;;;4.23;1.90;;;;;;;;;;5007575;28;20188;-64
2021/05/05 04:49:53;;;;;;;4.03;2.60;;;;;;;;;;5001785;28;20188;-62
2021/05/05 04:52:19;;;;;;;3.73;2.27;;;;;;;;;;5006540;28;20183;-65
2021/05/05 04:54:45;;;;;;;3.60;2.30;;;;;;;;;;4992186;28;20606;-64
2021/05/05 04:57:11;;;;;;;1.80;1.70;;;;;;;;;;5016266;28;20185;-63
2021/05/05 04:59:37;;;;;;;2.60;2.03;;;;;;;;;;4998308;28;20187;-64
2021/05/05 05:02:04;;;;;;;4.77;2.20;;;;;;;;;;4999354;28;20736;-64
2021/05/05 05:04:30;;;;;;;3.70;2.07;;;;;;;;;;4998286;28;20184;-64
2021/05/05 05:06:56;;;;;;;3.57;2.07;;;;;;;;;;5002281;28;20184;-64
2021/05/05 05:09:22;;;;;;;2.67;2.10;;;;;;;;;;4999480;28;20274;-63
2021/05/05 05:11:48;;;;;;;2.27;2.07;;;;;;;;;;5003161;28;20213;-63
2021/05/05 05:14:14;;;;;;;2.53;1.97;;;;;;;;;;4997195;28;20668;-64
2021/05/05 05:16:40;;;;;;;2.53;2.03;;;;;;;;;;5005398;28;20184;-63
2021/05/05 05:19:06;;;;;;;4.67;1.80;;;;;;;;;;5002447;28;20189;-64
2021/05/05 05:21:32;;;;;;;3.43;1.80;;;;;;;;;;5003636;28;20593;-63
2021/05/05 05:23:58;;;;;;;2.90;1.97;;;;;;;;;;5003527;28;20185;-63
2021/05/05 05:26:24;;;;;;;4.77;2.00;;;;;;;;;;4999381;28;20221;-64
2021/05/05 05:28:50;;;;;;;2.77;1.80;;;;;;;;;;5004441;28;20223;-62
2021/05/05 05:31:16;;;;;;;5.13;2.17;;;;;;;;;;4997626;28;20682;-63
2021/05/05 05:33:43;;;;;;;2.77;1.67;;;;;;;;;;5000577;28;20193;-63
2021/05/05 05:36:09;;;;;;;3.60;2.40;;;;;;;;;;4997540;28;20231;-63
2021/05/05 05:38:35;;;;;;;1.93;1.83;;;;;;;;;;5003757;28;20613;-63
2021/05/05 05:41:01;;;;;;;4.87;2.40;;;;;;;;;;4994244;28;20213;-62
2021/05/05 05:43:27;;;;;;;2.37;1.70;;;;;;;;;;4999410;28;20677;-62
2021/05/05 05:45:53;;;;;;;1.67;1.57;;;;;;;;;;4994597;28;20199;-62
2021/05/05 05:48:19;;;;;;;2.07;1.60;;;;;;;;;;4999376;28;20545;-62
2021/05/05 05:50:45;;;;;;;1.70;1.60;;;;;;;;;;4999280;28;20227;-61
2021/05/05 05:53:11;;;;;;;6.07;2.10;;;;;;;;;;5000110;28;20184;-61
2021/05/05 05:55:41;;;;;;;5.43;2.00;;;;;;;;;;4998022;28;20581;-61
2021/05/05 05:58:07;;;;;;;5.23;2.30;;;;;;;;;;4999645;28;20244;-62
2021/05/05 06:00:33;;;;;;;4.20;2.50;;;;;;;;;;4998478;28;20685;-63
2021/05/05 06:02:59;;;;;;;6.93;1.87;;;;;;;;;;5000939;28;20213;-63
2021/05/05 06:05:25;;;;;;;3.23;2.00;;;;;;;;;;5000568;28;20208;-62
2021/05/05 06:07:51;;;;;;;3.10;1.70;;;;;;;;;;4997950;28;20258;-63
2021/05/05 06:10:17;;;;;;;6.27;1.90;;;;;;;;;;4995458;28;20524;-63
2021/05/05 06:12:43;;;;;;;3.23;2.07;;;;;;;;;;5009009;28;20300;-64
2021/05/05 06:15:10;;;;;;;5.63;2.20;;;;;;;;;;5003248;28;20271;-61
2021/05/05 06:17:36;;;;;;;5.07;2.00;;;;;;;;;;4998456;28;20206;-61
2021/05/05 06:20:03;;;;;;;4.20;2.30;;;;;;;;;;5003255;28;20199;-62
2021/05/05 06:22:29;;;;;;;7.13;2.10;;;;;;;;;;5002797;28;20223;-62
2021/05/05 06:24:55;;;;;;;5.93;2.30;;;;;;;;;;5000879;28;20618;-64
2021/05/05 06:27:21;;;;;;;5.03;2.77;;;;;;;;;;4994069;28;20220;-64
2021/05/05 06:29:47;;;;;;;5.60;2.50;;;;;;;;;;4999748;28;20658;-61
2021/05/05 06:32:14;;;;;;;6.93;2.93;;;;;;;;;;4996744;28;20224;-61
2021/05/05 06:34:40;;;;;;;5.77;2.87;;;;;;;;;;4995090;28;20197;-62
2021/05/05 06:37:06;;;;;;;9.23;2.53;;;;;;;;;;4995386;28;20485;-61
2021/05/05 06:39:32;;;;;;;8.23;2.60;;;;;;;;;;4997305;28;20545;-62
2021/05/05 06:41:58;;;;;;;4.57;2.50;;;;;;;;;;4996590;28;20222;-62
2021/05/05 06:44:24;;;;;;;3.23;2.13;;;;;;;;;;5004179;28;20665;-62
2021/05/05 06:46:54;;;;;;;5.70;2.67;;;;;;;;;;5000252;28;20223;-62
2021/05/05 06:49:20;;;;;;;2.30;2.10;;;;;;;;;;5000541;28;20212;-63
2021/05/05 06:51:46;;;;;;;4.20;1.90;;;;;;;;;;5007892;28;20213;-61
2021/05/05 06:54:13;;;;;;;5.00;2.07;;;;;;;;;;5004941;28;20189;-60
2021/05/05 06:56:39;;;;;;;4.50;1.90;;;;;;;;;;5004884;28;20192;-63
2021/05/05 06:59:05;;;;;;;3.63;2.00;;;;;;;;;;5004218;28;20731;-62
2021/05/05 07:01:31;;;;;;;2.10;1.70;;;;;;;;;;4999221;28;20584;-61
2021/05/05 07:03:57;;;;;;;2.83;1.97;;;;;;;;;;5006924;28;20207;-64
2021/05/05 07:06:23;;;;;;;1.97;1.80;;;;;;;;;;5005666;28;20690;-63
2021/05/05 07:08:49;;;;;;;6.50;2.23;;;;;;;;;;5002898;28;20185;-64
2021/05/05 07:11:16;;;;;;;4.50;2.10;;;;;;;;;;5001836;28;20219;-62
2021/05/05 07:13:42;;;;;;;4.17;2.17;;;;;;;;;;5003628;28;20249;-62
2021/05/05 07:16:08;;;;;;;4.37;2.40;;;;;;;;;;5004436;28;20568;-63
2021/05/05 07:18:34;;;;;;;3.30;1.53;;;;;;;;;;5008017;28;20255;-64
2021/05/05 07:21:00;;;;;;;3.57;1.43;;;;;;;;;;5034873;28;20224;-62
2021/05/05 07:23:27;;;;;;;7.07;3.23;;;;;;;;;;5006843;28;20873;-62
2021/05/05 07:25:53;;;;;;;5.23;2.60;;;;;;;;;;5005423;28;20196;-63
2021/05/05 07:28:19;;;;;;;7.63;2.03;;;;;;;;;;5003300;28;20280;-63
2021/05/05 07:30:45;;;;;;;3.40;2.03;;;;;;;;;;5006891;28;20734;-66
2021/05/05 07:33:13;;;;;;;5.43;2.10;;;;;;;;;;5007567;28;20192;-63
2021/05/05 07:35:41;;;;;;;3.30;1.93;;;;;;;;;;5006276;28;20190;-62
2021/05/05 07:41:28;;;;;;;4.13;1.83;;;;;;;;;;5008300;28;20584;-63
2021/05/05 07:46:20;;;;;;;8.87;2.63;;;;;;;;;;5002647;28;20189;-63
2021/05/05 07:48:50;;;;;;;5.57;2.17;;;;;;;;;;5005570;28;20539;-63
2021/05/05 07:51:17;;;;;;;8.53;2.93;;;;;;;;;;5011068;28;20216;-63
2021/05/05 07:53:43;;;;;;;5.60;2.50;;;;;;;;;;5006802;28;20190;-64
2021/05/05 07:56:09;;;;;;;4.83;2.07;;;;;;;;;;5003055;28;20177;-64
2021/05/05 07:58:35;;;;;;;4.20;2.00;;;;;;;;;;5009324;28;20684;-61
2021/05/05 08:01:01;;;;;;;2.83;1.77;;;;;;;;;;5004537;28;20347;-64
2021/05/05 08:03:27;;;;;;;5.63;2.30;;;;;;;;;;5007737;28;20184;-62
2021/05/05 08:05:54;;;;;;;7.93;2.50;;;;;;;;;;5014553;28;20751;-62
2021/05/05 08:08:20;;;;;;;6.73;2.27;;;;;;;;;;5011759;28;20185;-64
2021/05/05 08:10:46;;;;;;;4.47;1.90;;;;;;;;;;5006405;28;20237;-63
2021/05/05 08:13:12;;;;;;;6.93;2.30;;;;;;;;;;5011933;28;20212;-63
2021/05/05 08:15:38;;;;;;;2.70;2.00;;;;;;;;;;5014910;28;20189;-63
2021/05/05 08:18:04;;;;;;;2.63;1.77;;;;;;;;;;5006892;28;20640;-63
2021/05/05 08:20:31;;;;;;;3.30;1.97;;;;;;;;;;5008969;28;20200;-64
2021/05/05 08:22:57;;;;;;;4.83;1.80;;;;;;;;;;5004951;28;20213;-63
2021/05/05 08:25:23;;;;;;;3.33;1.83;;;;;;;;;;5010503;28;20559;-63
2021/05/05 08:27:50;;;;;;;4.23;2.00;;;;;;;;;;5004047;28;20207;-63
2021/05/05 08:30:16;;;;;;;4.37;2.10;;;;;;;;;;5002537;28;20229;-64
2021/05/05 08:32:43;;;;;;;6.20;2.40;;;;;;;;;;5010387;28;20668;-63
2021/05/05 08:35:09;;;;;;;4.32;2.15;;;;;;;;;;5008310;28;20206;-63
2021/05/05 08:37:35;;;;;;;4.33;2.27;;;;;;;;;;5007585;28;20193;-63
2021/05/05 08:40:01;;;;;;;3.60;2.23;;;;;;;;;;5005148;28;20225;-63
2021/05/05 08:42:27;;;;;;;2.93;2.00;;;;;;;;;;5007183;28;20635;-63
2021/05/05 08:44:54;;;;;;;5.60;2.57;;;;;;;;;;5006591;28;20684;-63
2021/05/05 08:47:20;;;;;;;4.90;2.13;;;;;;;;;;5003945;28;20188;-63
2021/05/05 08:49:46;;;;;;;6.20;2.30;;;;;;;;;;5001261;28;20760;-64
2021/05/05 08:52:12;;;;;;;4.77;2.40;;;;;;;;;;5005112;28;20702;-63
2021/05/05 08:54:38;;;;;;;5.40;2.60;;;;;;;;;;5010279;28;20203;-63
2021/05/05 08:57:05;;;;;;;4.87;2.07;;;;;;;;;;5004996;28;20197;-63
2021/05/05 08:59:32;;;;;;;4.03;2.13;;;;;;;;;;5001161;28;20577;-63
2021/05/05 09:01:58;;;;;;;5.27;2.90;;;;;;;;;;5004204;28;20231;-63
2021/05/05 09:04:24;;;;;;;6.23;2.63;;;;;;;;;;5011826;28;20189;-63
2021/05/05 09:06:50;;;;;;;5.07;2.17;;;;;;;;;;5019659;28;20675;-61
2021/05/05 09:09:34;;;;;;;4.23;2.30;;;;;;;;;;5018039;28;20188;-63
2021/05/05 09:12:10;;;;;;;3.93;2.53;;;;;;;;;;5006986;28;20692;-63
2021/05/05 09:14:36;;;;;;;4.50;2.73;;;;;;;;;;5007197;28;20216;-63
2021/05/05 09:17:02;;;;;;;4.65;2.58;;;;;;;;;;5001209;28;20669;-63
2021/05/05 09:19:28;;;;;;;3.65;1.90;;;;;;;;;;4999528;28;20192;-62
2021/05/05 09:21:54;;;;;;;3.95;2.20;;;;;;;;;;4988527;28;20224;-62
2021/05/05 09:24:27;;;;;;;6.00;1.87;;;;;;;;;;4997243;28;20192;-62
2021/05/05 09:26:55;;;;;;;2.75;1.65;;;;;;;;;;5006978;28;20474;-64
2021/05/05 09:29:22;;;;;;;3.95;1.90;;;;;;;;;;5001291;28;20272;-62
2021/05/05 09:31:49;;;;;;;4.47;1.70;;;;;;;;;;4996624;28;20205;-64
2021/05/05 09:34:15;;;;;;;3.40;1.63;;;;;;;;;;5001820;28;20883;-66
2021/05/05 09:36:55;;;;;;;2.97;1.77;;;;;;;;;;5003850;28;20224;-62
2021/05/05 09:39:26;;;;;;;3.60;1.90;;;;;;;;;;4999008;28;20652;-62
2021/05/05 09:41:52;;;;;;;2.95;1.70;;;;;;;;;;5002385;28;20236;-63
2021/05/05 09:44:18;;;;;;;2.70;1.73;;;;;;;;;;5003012;28;20660;-62
2021/05/05 09:46:46;;;;;;;5.03;2.13;;;;;;;;;;4996805;28;20177;-63
2021/05/05 09:49:19;;;;;;;3.70;1.70;;;;;;;;;;5000309;28;20186;-62
2021/05/05 09:51:50;;;;;;;5.13;2.22;;;;;;;;;;4997462;28;20683;-65
2021/05/05 09:54:22;;;;;;;3.72;1.90;;;;;;;;;;4997393;28;20209;-64
2021/05/05 09:56:48;;;;;;;4.63;1.80;;;;;;;;;;5000068;28;20590;-64
2021/05/05 09:59:14;;;;;;;3.78;1.98;;;;;;;;;;4997786;28;20609;-64
2021/05/05 10:01:40;;;;;;;3.42;1.75;;;;;;;;;;4999985;28;20266;-63
2021/05/05 10:04:07;;;;;;;3.08;1.92;;;;;;;;;;4999341;28;20680;-63
2021/05/05 10:06:36;;;;;;;3.00;1.85;;;;;;;;;;4994825;28;20233;-63
2021/05/05 10:09:05;;;;;;;5.15;2.03;;;;;;;;;;4996678;28;20675;-63
2021/05/05 10:11:31;;;;;;;3.13;1.80;;;;;;;;;;5003272;28;20204;-63
2021/05/05 10:13:59;;;;;;;4.30;1.77;;;;;;;;;;5000586;28;20185;-64
2021/05/05 10:16:26;;;;;;;5.70;2.22;;;;;;;;;;4998016;28;20677;-65
2021/05/05 10:18:52;;;;;;;3.92;1.73;;;;;;;;;;5002052;28;20329;-63
2021/05/05 10:21:23;;;;;;;4.28;1.90;;;;;;;;;;4996069;28;20592;-65
2021/05/05 10:23:50;;;;;;;3.88;1.90;;;;;;;;;;5001104;28;20185;-62
2021/05/05 10:26:19;;;;;;;3.20;1.80;;;;;;;;;;5009301;28;20189;-64
2021/05/05 10:28:44;;;;;;;3.08;1.70;;;;;;;;;;5002000;28;20212;-64
2021/05/05 10:31:20;;;;;;;5.22;1.90;;;;;;;;;;5003213;28;20250;-64
2021/05/05 10:33:47;;;;;;;5.35;1.75;;;;;;;;;;5006064;28;20200;-64
2021/05/05 10:36:30;;;;;;;4.18;1.90;;;;;;;;;;5006923;28;20186;-64
2021/05/05 10:38:56;;;;;;;4.20;2.00;;;;;;;;;;5002891;28;20185;-63
2021/05/05 10:41:22;;;;;;;3.60;1.60;;;;;;;;;;4998631;28;20224;-63
2021/05/05 10:44:07;;;;;;;5.25;2.03;;;;;;;;;;5006899;28;20656;-64
2021/05/05 10:46:34;;;;;;;3.78;1.40;;;;;;;;;;5010320;28;20216;-65
2021/05/05 10:49:06;;;;;;;3.25;2.20;;;;;;;;;;5005595;28;20223;-65
2021/05/05 10:51:44;;;;;;;3.63;1.60;;;;;;;;;;5006325;28;20305;-64
2021/05/05 10:54:14;;;;;;;2.67;1.45;;;;;;;;;;5009948;28;20562;-63
2021/05/05 10:56:40;;;;;;;4.22;1.88;;;;;;;;;;4994534;28;20185;-64
2021/05/05 10:59:08;;;;;;;2.50;1.50;;;;;;;;;;5001802;28;20194;-64
2021/05/05 11:01:39;;;;;;;2.63;1.58;;;;;;;;;;5000918;28;20805;-64
2021/05/05 11:04:05;;;;;;;3.17;1.52;;;;;;;;;;5003011;28;20181;-65
2021/05/05 11:06:32;;;;;;;3.47;1.40;;;;;;;;;;5000566;28;20193;-64
2021/05/05 11:09:15;;;;;;;3.25;1.90;;;;;;;;;;5000545;28;20619;-64
2021/05/05 11:11:43;;;;;;;5.53;2.05;;;;;;;;;;5007278;28;20208;-65
2021/05/05 11:14:09;;;;;;;4.57;2.55;;;;;;;;;;5001061;28;20205;-65
2021/05/05 11:17:08;;;;;;;1.40;1.23;;;;;;;;;;4990951;28;20838;-65
2021/05/05 11:19:37;;;;;;;2.27;1.70;;;;;;;;;;4962468;28;20194;-64
2021/05/05 11:22:23;;;;;;;4.73;1.43;;;;;;;;;;4961850;28;20232;-64
2021/05/05 11:24:50;;;;;;;1.67;1.57;;;;;;;;;;4963227;28;20711;-63
2021/05/05 11:27:17;;;;;;;1.80;1.40;;;;;;;;;;4965651;28;20285;-63
2021/05/05 11:29:47;;;;;;;1.50;1.30;;;;;;;;;;4962814;28;20190;-63
2021/05/05 11:32:15;;;;;;;1.63;1.30;;;;;;;;;;4963331;28;20286;-65
2021/05/05 11:34:43;;;;;;;1.57;1.47;;;;;;;;;;4971529;28;20248;-64
2021/05/05 11:37:15;;;;;;;1.33;1.23;;;;;;;;;;4963399;28;20225;-64
2021/05/05 11:39:42;;;;;;;1.60;1.50;;;;;;;;;;4971255;28;20260;-63
2021/05/05 11:42:11;;;;;;;2.83;1.63;;;;;;;;;;4964087;28;20284;-63
2021/05/05 11:44:39;;;;;;;2.40;1.60;;;;;;;;;;4963423;28;20191;-63
2021/05/05 11:47:08;;;;;;;3.60;1.30;;;;;;;;;;4965571;28;20190;-64
2021/05/05 11:49:35;;;;;;;5.80;1.43;;;;;;;;;;4963393;28;20269;-62
2021/05/05 11:52:36;;;;;;;3.27;1.70;;;;;;;;;;4962458;28;20213;-65
2021/05/05 11:55:11;;;;;;;3.03;1.63;;;;;;;;;;4918971;28;20771;-63
2021/05/05 11:57:38;;;;;;;1.60;1.47;;;;;;;;;;4945044;28;20622;-62
2021/05/05 12:00:10;;;;;;;1.73;1.50;;;;;;;;;;4945506;28;20939;-63
2021/05/05 12:02:48;;;;;;;1.60;1.50;;;;;;;;;;4943704;28;20230;-63
2021/05/05 12:05:31;;;;;;;1.70;1.40;;;;;;;;;;4947482;28;20179;-63
2021/05/05 12:08:00;;;;;;;1.77;1.60;;;;;;;;;;4943993;28;20187;-63
2021/05/05 12:10:52;;;;;;;1.70;1.60;;;;;;;;;;4944647;28;20269;-63
2021/05/05 12:13:20;;;;;;;2.53;1.87;;;;;;;;;;4942810;28;20226;-65
2021/05/05 12:16:00;;;;;;;1.30;1.20;;;;;;;;;;4947373;28;20589;-63
2021/05/05 12:18:39;;;;;;;1.50;1.40;;;;;;;;;;4948250;28;20187;-64
2021/05/05 12:21:05;;;;;;;1.90;1.20;;;;;;;;;;4947255;28;20678;-65
2021/05/05 12:23:35;;;;;;;2.00;1.40;;;;;;;;;;4943875;28;20188;-63
2021/05/05 12:26:11;;;;;;;1.52;1.20;;;;;;;;;;4942326;28;20757;-64
2021/05/05 12:28:37;;;;;;;2.03;1.48;;;;;;;;;;4968744;28;20207;-63
2021/05/05 12:31:03;;;;;;;2.05;1.25;;;;;;;;;;5006946;28;20200;-63
2021/05/05 12:33:38;;;;;;;2.00;1.42;;;;;;;;;;5003755;28;20177;-63
2021/05/05 12:36:05;;;;;;;2.47;1.30;;;;;;;;;;5004652;28;20217;-64
2021/05/05 12:38:35;;;;;;;1.42;1.30;;;;;;;;;;4997948;28;20200;-64
2021/05/05 12:41:06;;;;;;;3.95;1.60;;;;;;;;;;4998685;28;20284;-65
2021/05/05 12:43:32;;;;;;;3.45;1.30;;;;;;;;;;4995783;28;20181;-65
2021/05/05 12:45:59;;;;;;;5.10;1.35;;;;;;;;;;5000427;28;21172;-64
2021/05/05 12:48:27;;;;;;;1.63;1.25;;;;;;;;;;4997907;28;20262;-64
2021/05/05 12:50:54;;;;;;;1.90;1.40;;;;;;;;;;4998613;28;20213;-65
2021/05/05 12:53:21;;;;;;;1.50;1.20;;;;;;;;;;5000562;28;20973;-64
2021/05/05 12:55:56;;;;;;;1.42;1.33;;;;;;;;;;4997323;28;20676;-62
2021/05/05 12:58:22;;;;;;;3.28;1.40;;;;;;;;;;4998964;28;20180;-63
2021/05/05 13:00:48;;;;;;;3.08;1.25;;;;;;;;;;4986628;28;20689;-65
2021/05/05 13:03:19;;;;;;;1.95;1.25;;;;;;;;;;4995189;28;20214;-64
2021/05/05 13:05:54;;;;;;;1.25;1.15;;;;;;;;;;5002996;28;20754;-64
2021/05/05 13:08:29;;;;;;;3.53;1.85;;;;;;;;;;4990270;28;20340;-63
2021/05/05 13:10:55;;;;;;;2.42;1.58;;;;;;;;;;4995693;28;20325;-63
2021/05/05 13:13:25;;;;;;;2.70;1.50;;;;;;;;;;5003321;28;20558;-65
2021/05/05 13:16:19;;;;;;;2.45;1.20;;;;;;;;;;4999357;28;20195;-62
2021/05/05 13:32:49;;;;;;;2.92;1.45;;;;;;;;;;5000923;28;20196;-63
2021/05/05 13:35:24;;;;;;;2.20;1.85;;;;;;;;;;5002795;28;20197;-64
2021/05/05 13:37:55;;;;;;;2.53;1.70;;;;;;;;;;4996555;28;20605;-63
2021/05/05 13:40:21;;;;;;;3.08;1.50;;;;;;;;;;4993992;28;20322;-62
2021/05/05 13:42:47;;;;;;;2.15;1.20;;;;;;;;;;5002843;28;20232;-62
2021/05/05 13:45:14;;;;;;;1.52;1.05;;;;;;;;;;5004328;28;20190;-62
2021/05/05 13:47:47;;;;;;;2.63;1.10;;;;;;;;;;4995237;28;20559;-63
2021/05/05 13:50:13;;;;;;;2.90;2.40;;;;;;;;;;4990181;28;20216;-63
2021/05/05 13:52:41;;;;;;;3.87;1.77;;;;;;;;;;4991632;28;20204;-63
2021/05/05 13:55:08;;;;;;;1.50;1.40;;;;;;;;;;4997825;28;20177;-63
2021/05/05 13:57:34;;;;;;;1.63;1.30;;;;;;;;;;4997401;28;20208;-62
2021/05/05 14:00:04;;;;;;;1.30;1.20;;;;;;;;;;5000368;28;20185;-63
2021/05/05 14:02:30;;;;;;;3.00;1.45;;;;;;;;;;4998461;28;20232;-62
2021/05/05 14:04:56;;;;;;;1.60;1.15;;;;;;;;;;4999275;28;20762;-63
2021/05/05 14:07:22;;;;;;;2.22;1.33;;;;;;;;;;4998888;28;20190;-64
2021/05/05 14:09:48;;;;;;;1.70;1.20;;;;;;;;;;4996906;28;20224;-64
2021/05/05 14:12:14;;;;;;;2.38;1.30;;;;;;;;;;5000618;28;20208;-63
2021/05/05 14:14:40;;;;;;;1.33;1.15;;;;;;;;;;4999333;28;20245;-64
2021/05/05 14:17:06;;;;;;;3.08;1.20;;;;;;;;;;4999913;28;20185;-63
2021/05/05 14:19:32;;;;;;;1.67;1.20;;;;;;;;;;4998278;28;20308;-64
2021/05/05 14:21:58;;;;;;;2.20;1.20;;;;;;;;;;4998035;28;20216;-63
2021/05/05 14:24:24;;;;;;;1.90;1.40;;;;;;;;;;5000407;28;20669;-64
2021/05/05 14:26:50;;;;;;;1.85;1.23;;;;;;;;;;4995677;28;20252;-64
2021/05/05 14:29:18;;;;;;;1.50;1.20;;;;;;;;;;5000652;28;20189;-65
2021/05/05 14:31:44;;;;;;;2.58;1.17;;;;;;;;;;4998620;28;20211;-64
2021/05/05 14:34:10;;;;;;;2.30;1.38;;;;;;;;;;5004014;28;20197;-65
2021/05/05 14:36:36;;;;;;;3.22;1.20;;;;;;;;;;4998803;28;20185;-63
2021/05/05 14:39:07;;;;;;;2.10;1.10;;;;;;;;;;4995144;28;20192;-65
2021/05/05 14:41:33;;;;;;;1.98;1.20;;;;;;;;;;5003382;28;20577;-64
2021/05/05 14:44:04;;;;;;;1.02;0.90;;;;;;;;;;5010796;28;20181;-64
2021/05/05 14:49:10;;;;;;;1.15;0.93;;;;;;;;;;4998788;28;20189;-63
2021/05/05 14:51:40;;;;;;;2.30;1.58;;;;;;;;;;5002663;28;20846;-63
2021/05/05 14:54:07;;;;;;;2.83;1.33;;;;;;;;;;5004606;28;20189;-63
2021/05/05 14:56:34;;;;;;;2.00;1.30;;;;;;;;;;5001208;28;20196;-63
2021/05/05 14:59:03;;;;;;;1.55;1.10;;;;;;;;;;5003952;28;20208;-64
2021/05/05 15:01:29;;;;;;;1.92;1.65;;;;;;;;;;5001582;28;20303;-65
2021/05/05 15:03:55;;;;;;;2.03;1.77;;;;;;;;;;5006155;28;20280;-64
2021/05/05 15:06:27;;;;;;;3.72;1.60;;;;;;;;;;5001568;28;20189;-64
2021/05/05 15:09:02;;;;;;;1.85;1.45;;;;;;;;;;5001191;28;20221;-62